sensor_id;sensor_type;location;lat;lon;timestamp;P1;durP1;ratioP1;P2;durP2;ratioP2
46721;SDS011;32455;43.430;23.136;2023-11-21T00:02:31;1.67;;;1.00;;
46721;SDS011;32455;43.430;23.136;2023-11-21T00:05:16;0.70;;;0.70;;
46721;SDS011;32455;43.430;23.136;2023-11-21T00:08:02;0.77;;;0.77;;
46721;SDS011;32455;43.430;23.136;2023-11-21T00:10:47;2.40;;;0.90;;
46721;SDS011;32455;43.430;23.136;2023-11-21T00:13:32;0.70;;;0.70;;
46721;SDS011;32455;43.430;23.136;2023-11-21T00:16:18;0.80;;;0.80;;
46721;SDS011;32455;43.430;23.136;2023-11-21T00:19:03;2.60;;;0.68;;
46721;SDS011;32455;43.430;23.136;2023-11-21T00:21:50;0.63;;;0.63;;
46721;SDS011;32455;43.430;23.136;2023-11-21T00:24:35;0.73;;;0.70;;
46721;SDS011;32455;43.430;23.136;2023-11-21T00:27:20;1.70;;;1.00;;
46721;SDS011;32455;43.430;23.136;2023-11-21T00:30:06;1.33;;;0.80;;
46721;SDS011;32455;43.430;23.136;2023-11-21T00:32:52;0.60;;;0.60;;
46721;SDS011;32455;43.430;23.136;2023-11-21T00:35:37;3.30;;;1.35;;
46721;SDS011;32455;43.430;23.136;2023-11-21T00:38:21;0.60;;;0.60;;
46721;SDS011;32455;43.430;23.136;2023-11-21T00:41:06;1.50;;;0.70;;
46721;SDS011;32455;43.430;23.136;2023-11-21T00:43:52;0.75;;;0.75;;
46721;SDS011;32455;43.430;23.136;2023-11-21T00:46:37;0.50;;;0.50;;
46721;SDS011;32455;43.430;23.136;2023-11-21T00:49:23;1.52;;;0.63;;
46721;SDS011;32455;43.430;23.136;2023-11-21T00:52:08;0.60;;;0.60;;
46721;SDS011;32455;43.430;23.136;2023-11-21T00:54:54;0.70;;;0.70;;
46721;SDS011;32455;43.430;23.136;2023-11-21T00:57:40;0.70;;;0.70;;
46721;SDS011;32455;43.430;23.136;2023-11-21T01:00:25;1.10;;;0.77;;
46721;SDS011;32455;43.430;23.136;2023-11-21T01:03:11;0.85;;;0.50;;
46721;SDS011;32455;43.430;23.136;2023-11-21T01:05:56;0.70;;;0.70;;
46721;SDS011;32455;43.430;23.136;2023-11-21T01:08:41;1.00;;;0.63;;
46721;SDS011;32455;43.430;23.136;2023-11-21T01:11:28;0.70;;;0.70;;
46721;SDS011;32455;43.430;23.136;2023-11-21T01:14:13;1.00;;;0.70;;
46721;SDS011;32455;43.430;23.136;2023-11-21T01:16:58;0.60;;;0.60;;
46721;SDS011;32455;43.430;23.136;2023-11-21T01:19:43;0.50;;;0.50;;
46721;SDS011;32455;43.430;23.136;2023-11-21T01:22:28;0.73;;;0.70;;
46721;SDS011;32455;43.430;23.136;2023-11-21T01:25:13;0.70;;;0.70;;
46721;SDS011;32455;43.430;23.136;2023-11-21T01:27:59;0.60;;;0.60;;
46721;SDS011;32455;43.430;23.136;2023-11-21T01:30:45;0.75;;;0.75;;
46721;SDS011;32455;43.430;23.136;2023-11-21T01:33:30;0.88;;;0.73;;
46721;SDS011;32455;43.430;23.136;2023-11-21T01:36:16;0.60;;;0.60;;
46721;SDS011;32455;43.430;23.136;2023-11-21T01:39:01;0.60;;;0.60;;
46721;SDS011;32455;43.430;23.136;2023-11-21T01:41:52;0.52;;;0.52;;
46721;SDS011;32455;43.430;23.136;2023-11-21T01:44:38;2.40;;;0.70;;
46721;SDS011;32455;43.430;23.136;2023-11-21T01:47:23;0.63;;;0.63;;
46721;SDS011;32455;43.430;23.136;2023-11-21T01:50:09;1.08;;;1.00;;
46721;SDS011;32455;43.430;23.136;2023-11-21T01:53:00;1.20;;;1.10;;
46721;SDS011;32455;43.430;23.136;2023-11-21T01:55:46;1.55;;;0.80;;
46721;SDS011;32455;43.430;23.136;2023-11-21T01:58:31;0.80;;;0.77;;
46721;SDS011;32455;43.430;23.136;2023-11-21T02:01:17;0.73;;;0.65;;
46721;SDS011;32455;43.430;23.136;2023-11-21T02:04:03;1.40;;;0.60;;
46721;SDS011;32455;43.430;23.136;2023-11-21T02:06:48;0.70;;;0.68;;
46721;SDS011;32455;43.430;23.136;2023-11-21T02:09:36;1.33;;;0.82;;
46721;SDS011;32455;43.430;23.136;2023-11-21T02:12:26;1.48;;;0.75;;
46721;SDS011;32455;43.430;23.136;2023-11-21T02:15:13;2.88;;;1.23;;
46721;SDS011;32455;43.430;23.136;2023-11-21T02:18:04;2.03;;;0.90;;
46721;SDS011;32455;43.430;23.136;2023-11-21T02:20:50;3.20;;;0.80;;
46721;SDS011;32455;43.430;23.136;2023-11-21T02:23:35;0.70;;;0.68;;
46721;SDS011;32455;43.430;23.136;2023-11-21T02:26:22;0.73;;;0.55;;
46721;SDS011;32455;43.430;23.136;2023-11-21T02:29:07;1.23;;;0.60;;
46721;SDS011;32455;43.430;23.136;2023-11-21T02:31:56;2.15;;;0.57;;
46721;SDS011;32455;43.430;23.136;2023-11-21T02:34:43;0.88;;;0.60;;
46721;SDS011;32455;43.430;23.136;2023-11-21T02:37:28;0.60;;;0.60;;
46721;SDS011;32455;43.430;23.136;2023-11-21T02:40:13;0.45;;;0.45;;
46721;SDS011;32455;43.430;23.136;2023-11-21T02:43:02;0.60;;;0.60;;
46721;SDS011;32455;43.430;23.136;2023-11-21T02:45:48;0.68;;;0.60;;
46721;SDS011;32455;43.430;23.136;2023-11-21T02:48:33;2.20;;;0.70;;
46721;SDS011;32455;43.430;23.136;2023-11-21T02:51:19;0.73;;;0.73;;
46721;SDS011;32455;43.430;23.136;2023-11-21T02:54:05;0.60;;;0.60;;
46721;SDS011;32455;43.430;23.136;2023-11-21T02:56:51;1.02;;;0.90;;
46721;SDS011;32455;43.430;23.136;2023-11-21T02:59:37;0.55;;;0.55;;
46721;SDS011;32455;43.430;23.136;2023-11-21T03:02:22;0.70;;;0.70;;
46721;SDS011;32455;43.430;23.136;2023-11-21T03:05:08;0.60;;;0.60;;
46721;SDS011;32455;43.430;23.136;2023-11-21T03:07:53;0.70;;;0.70;;
46721;SDS011;32455;43.430;23.136;2023-11-21T03:10:38;2.13;;;0.77;;
46721;SDS011;32455;43.430;23.136;2023-11-21T03:13:24;0.60;;;0.60;;
46721;SDS011;32455;43.430;23.136;2023-11-21T03:16:09;1.58;;;0.85;;
46721;SDS011;32455;43.430;23.136;2023-11-21T03:18:55;1.15;;;0.70;;
46721;SDS011;32455;43.430;23.136;2023-11-21T03:21:40;0.65;;;0.65;;
46721;SDS011;32455;43.430;23.136;2023-11-21T03:24:25;0.68;;;0.63;;
46721;SDS011;32455;43.430;23.136;2023-11-21T03:27:11;1.65;;;0.68;;
46721;SDS011;32455;43.430;23.136;2023-11-21T03:29:56;1.10;;;0.93;;
46721;SDS011;32455;43.430;23.136;2023-11-21T03:32:42;2.45;;;1.13;;
46721;SDS011;32455;43.430;23.136;2023-11-21T03:35:27;0.50;;;0.50;;
46721;SDS011;32455;43.430;23.136;2023-11-21T03:38:13;1.13;;;0.80;;
46721;SDS011;32455;43.430;23.136;2023-11-21T03:40:57;0.52;;;0.52;;
46721;SDS011;32455;43.430;23.136;2023-11-21T03:43:43;1.80;;;0.65;;
46721;SDS011;32455;43.430;23.136;2023-11-21T03:46:28;0.52;;;0.52;;
46721;SDS011;32455;43.430;23.136;2023-11-21T03:49:13;0.63;;;0.63;;
46721;SDS011;32455;43.430;23.136;2023-11-21T03:51:58;0.80;;;0.80;;
46721;SDS011;32455;43.430;23.136;2023-11-21T03:54:44;0.70;;;0.60;;
46721;SDS011;32455;43.430;23.136;2023-11-21T03:57:29;1.38;;;1.00;;
46721;SDS011;32455;43.430;23.136;2023-11-21T04:00:14;1.75;;;0.57;;
46721;SDS011;32455;43.430;23.136;2023-11-21T04:02:59;1.15;;;0.77;;
46721;SDS011;32455;43.430;23.136;2023-11-21T04:05:44;2.55;;;0.90;;
46721;SDS011;32455;43.430;23.136;2023-11-21T04:08:30;0.60;;;0.60;;
46721;SDS011;32455;43.430;23.136;2023-11-21T04:11:16;0.47;;;0.47;;
46721;SDS011;32455;43.430;23.136;2023-11-21T04:14:01;1.00;;;0.68;;
46721;SDS011;32455;43.430;23.136;2023-11-21T04:16:46;0.82;;;0.77;;
46721;SDS011;32455;43.430;23.136;2023-11-21T04:19:33;1.05;;;0.77;;
46721;SDS011;32455;43.430;23.136;2023-11-21T04:22:18;0.77;;;0.77;;
46721;SDS011;32455;43.430;23.136;2023-11-21T04:25:03;1.23;;;0.70;;
46721;SDS011;32455;43.430;23.136;2023-11-21T04:27:49;0.43;;;0.43;;
46721;SDS011;32455;43.430;23.136;2023-11-21T04:30:35;0.98;;;0.57;;
46721;SDS011;32455;43.430;23.136;2023-11-21T04:33:21;0.63;;;0.60;;
46721;SDS011;32455;43.430;23.136;2023-11-21T04:36:07;0.68;;;0.52;;
46721;SDS011;32455;43.430;23.136;2023-11-21T04:38:53;0.70;;;0.70;;
46721;SDS011;32455;43.430;23.136;2023-11-21T04:41:38;0.70;;;0.70;;
46721;SDS011;32455;43.430;23.136;2023-11-21T04:44:28;1.08;;;0.77;;
46721;SDS011;32455;43.430;23.136;2023-11-21T04:47:13;2.50;;;0.95;;
46721;SDS011;32455;43.430;23.136;2023-11-21T04:49:58;2.50;;;0.80;;
46721;SDS011;32455;43.430;23.136;2023-11-21T04:52:44;0.70;;;0.60;;
46721;SDS011;32455;43.430;23.136;2023-11-21T04:55:30;2.83;;;0.70;;
46721;SDS011;32455;43.430;23.136;2023-11-21T04:58:15;0.60;;;0.60;;
46721;SDS011;32455;43.430;23.136;2023-11-21T05:01:00;0.77;;;0.50;;
46721;SDS011;32455;43.430;23.136;2023-11-21T05:03:46;0.70;;;0.70;;
46721;SDS011;32455;43.430;23.136;2023-11-21T05:06:31;1.42;;;0.90;;
46721;SDS011;32455;43.430;23.136;2023-11-21T05:09:18;1.13;;;0.70;;
46721;SDS011;32455;43.430;23.136;2023-11-21T05:12:03;1.27;;;1.17;;
46721;SDS011;32455;43.430;23.136;2023-11-21T05:14:49;1.70;;;0.85;;
46721;SDS011;32455;43.430;23.136;2023-11-21T05:17:35;2.08;;;1.00;;
46721;SDS011;32455;43.430;23.136;2023-11-21T05:20:22;1.33;;;0.98;;
46721;SDS011;32455;43.430;23.136;2023-11-21T05:23:07;0.75;;;0.68;;
46721;SDS011;32455;43.430;23.136;2023-11-21T05:25:53;0.88;;;0.80;;
46721;SDS011;32455;43.430;23.136;2023-11-21T05:28:38;1.92;;;1.10;;
46721;SDS011;32455;43.430;23.136;2023-11-21T05:31:23;3.88;;;0.90;;
46721;SDS011;32455;43.430;23.136;2023-11-21T05:34:07;0.70;;;0.70;;
46721;SDS011;32455;43.430;23.136;2023-11-21T05:36:52;1.27;;;0.60;;
46721;SDS011;32455;43.430;23.136;2023-11-21T05:39:38;1.08;;;0.82;;
46721;SDS011;32455;43.430;23.136;2023-11-21T05:42:23;1.58;;;0.75;;
46721;SDS011;32455;43.430;23.136;2023-11-21T05:45:08;0.82;;;0.80;;
46721;SDS011;32455;43.430;23.136;2023-11-21T05:47:55;2.13;;;0.77;;
46721;SDS011;32455;43.430;23.136;2023-11-21T05:50:41;0.60;;;0.60;;
46721;SDS011;32455;43.430;23.136;2023-11-21T05:53:26;0.63;;;0.63;;
46721;SDS011;32455;43.430;23.136;2023-11-21T05:56:11;1.02;;;0.82;;
46721;SDS011;32455;43.430;23.136;2023-11-21T05:58:58;1.17;;;0.80;;
46721;SDS011;32455;43.430;23.136;2023-11-21T06:01:43;0.90;;;0.70;;
46721;SDS011;32455;43.430;23.136;2023-11-21T06:04:30;0.60;;;0.60;;
46721;SDS011;32455;43.430;23.136;2023-11-21T06:07:15;0.85;;;0.77;;
46721;SDS011;32455;43.430;23.136;2023-11-21T06:10:01;1.02;;;0.60;;
46721;SDS011;32455;43.430;23.136;2023-11-21T06:12:51;1.00;;;0.50;;
46721;SDS011;32455;43.430;23.136;2023-11-21T06:15:37;0.75;;;0.70;;
46721;SDS011;32455;43.430;23.136;2023-11-21T06:18:22;0.90;;;0.60;;
46721;SDS011;32455;43.430;23.136;2023-11-21T06:21:11;1.25;;;0.60;;
46721;SDS011;32455;43.430;23.136;2023-11-21T06:23:56;2.05;;;0.90;;
46721;SDS011;32455;43.430;23.136;2023-11-21T06:26:42;0.40;;;0.40;;
46721;SDS011;32455;43.430;23.136;2023-11-21T06:29:29;0.60;;;0.60;;
46721;SDS011;32455;43.430;23.136;2023-11-21T06:32:14;2.78;;;0.60;;
46721;SDS011;32455;43.430;23.136;2023-11-21T06:35:00;0.60;;;0.60;;
46721;SDS011;32455;43.430;23.136;2023-11-21T06:37:46;1.02;;;0.40;;
46721;SDS011;32455;43.430;23.136;2023-11-21T06:40:35;0.70;;;0.70;;
46721;SDS011;32455;43.430;23.136;2023-11-21T06:43:21;1.75;;;0.50;;
46721;SDS011;32455;43.430;23.136;2023-11-21T06:46:07;0.45;;;0.45;;
46721;SDS011;32455;43.430;23.136;2023-11-21T06:48:52;0.70;;;0.70;;
46721;SDS011;32455;43.430;23.136;2023-11-21T06:51:37;0.60;;;0.60;;
46721;SDS011;32455;43.430;23.136;2023-11-21T06:54:22;1.75;;;0.52;;
46721;SDS011;32455;43.430;23.136;2023-11-21T06:57:08;0.50;;;0.50;;
46721;SDS011;32455;43.430;23.136;2023-11-21T06:59:53;0.93;;;0.60;;
46721;SDS011;32455;43.430;23.136;2023-11-21T07:02:38;0.50;;;0.50;;
46721;SDS011;32455;43.430;23.136;2023-11-21T07:05:24;0.40;;;0.40;;
46721;SDS011;32455;43.430;23.136;2023-11-21T07:08:10;0.90;;;0.55;;
46721;SDS011;32455;43.430;23.136;2023-11-21T07:10:55;0.77;;;0.52;;
46721;SDS011;32455;43.430;23.136;2023-11-21T07:13:40;0.50;;;0.50;;
46721;SDS011;32455;43.430;23.136;2023-11-21T07:16:26;0.50;;;0.50;;
46721;SDS011;32455;43.430;23.136;2023-11-21T07:19:11;1.10;;;0.70;;
46721;SDS011;32455;43.430;23.136;2023-11-21T07:21:56;1.33;;;0.55;;
46721;SDS011;32455;43.430;23.136;2023-11-21T07:24:43;0.60;;;0.60;;
46721;SDS011;32455;43.430;23.136;2023-11-21T07:27:28;0.73;;;0.70;;
46721;SDS011;32455;43.430;23.136;2023-11-21T07:30:13;0.60;;;0.60;;
46721;SDS011;32455;43.430;23.136;2023-11-21T07:32:59;0.55;;;0.55;;
46721;SDS011;32455;43.430;23.136;2023-11-21T07:35:44;0.50;;;0.50;;
46721;SDS011;32455;43.430;23.136;2023-11-21T07:38:30;0.60;;;0.60;;
46721;SDS011;32455;43.430;23.136;2023-11-21T07:41:15;2.20;;;0.75;;
46721;SDS011;32455;43.430;23.136;2023-11-21T07:44:02;0.73;;;0.70;;
46721;SDS011;32455;43.430;23.136;2023-11-21T07:46:47;3.75;;;0.80;;
46721;SDS011;32455;43.430;23.136;2023-11-21T07:49:34;0.60;;;0.60;;
46721;SDS011;32455;43.430;23.136;2023-11-21T07:52:20;0.60;;;0.60;;
46721;SDS011;32455;43.430;23.136;2023-11-21T07:55:06;0.80;;;0.50;;
46721;SDS011;32455;43.430;23.136;2023-11-21T07:57:52;0.65;;;0.60;;
46721;SDS011;32455;43.430;23.136;2023-11-21T08:00:38;0.50;;;0.50;;
46721;SDS011;32455;43.430;23.136;2023-11-21T08:03:24;0.98;;;0.60;;
46721;SDS011;32455;43.430;23.136;2023-11-21T08:06:11;0.52;;;0.50;;
46721;SDS011;32455;43.430;23.136;2023-11-21T08:08:57;0.90;;;0.65;;
46721;SDS011;32455;43.430;23.136;2023-11-21T08:11:42;0.88;;;0.75;;
46721;SDS011;32455;43.430;23.136;2023-11-21T08:14:28;0.52;;;0.47;;
46721;SDS011;32455;43.430;23.136;2023-11-21T08:17:13;0.63;;;0.63;;
46721;SDS011;32455;43.430;23.136;2023-11-21T08:19:59;0.93;;;0.73;;
46721;SDS011;32455;43.430;23.136;2023-11-21T08:22:44;0.68;;;0.68;;
46721;SDS011;32455;43.430;23.136;2023-11-21T08:25:32;0.50;;;0.50;;
46721;SDS011;32455;43.430;23.136;2023-11-21T08:28:19;0.90;;;0.80;;
46721;SDS011;32455;43.430;23.136;2023-11-21T08:31:06;1.45;;;0.77;;
46721;SDS011;32455;43.430;23.136;2023-11-21T08:33:52;0.65;;;0.65;;
46721;SDS011;32455;43.430;23.136;2023-11-21T08:36:43;0.60;;;0.57;;
46721;SDS011;32455;43.430;23.136;2023-11-21T08:39:28;0.70;;;0.70;;
46721;SDS011;32455;43.430;23.136;2023-11-21T08:42:15;1.40;;;0.80;;
46721;SDS011;32455;43.430;23.136;2023-11-21T08:45:00;0.75;;;0.75;;
46721;SDS011;32455;43.430;23.136;2023-11-21T08:47:46;0.68;;;0.60;;
46721;SDS011;32455;43.430;23.136;2023-11-21T08:50:32;2.17;;;0.70;;
46721;SDS011;32455;43.430;23.136;2023-11-21T08:53:17;0.73;;;0.65;;
46721;SDS011;32455;43.430;23.136;2023-11-21T08:56:02;1.75;;;0.70;;
46721;SDS011;32455;43.430;23.136;2023-11-21T08:58:49;0.60;;;0.60;;
46721;SDS011;32455;43.430;23.136;2023-11-21T09:01:34;0.73;;;0.52;;
46721;SDS011;32455;43.430;23.136;2023-11-21T09:04:19;0.65;;;0.65;;
46721;SDS011;32455;43.430;23.136;2023-11-21T09:07:03;0.57;;;0.57;;
46721;SDS011;32455;43.430;23.136;2023-11-21T09:09:49;0.63;;;0.63;;
46721;SDS011;32455;43.430;23.136;2023-11-21T09:12:35;0.60;;;0.60;;
46721;SDS011;32455;43.430;23.136;2023-11-21T09:15:22;1.08;;;0.82;;
46721;SDS011;32455;43.430;23.136;2023-11-21T09:18:07;0.75;;;0.70;;
46721;SDS011;32455;43.430;23.136;2023-11-21T09:20:53;1.42;;;0.70;;
46721;SDS011;32455;43.430;23.136;2023-11-21T09:23:38;0.70;;;0.70;;
46721;SDS011;32455;43.430;23.136;2023-11-21T09:26:24;0.50;;;0.50;;
46721;SDS011;32455;43.430;23.136;2023-11-21T09:29:10;1.02;;;0.70;;
46721;SDS011;32455;43.430;23.136;2023-11-21T09:31:56;0.60;;;0.60;;
46721;SDS011;32455;43.430;23.136;2023-11-21T09:34:44;0.70;;;0.70;;
46721;SDS011;32455;43.430;23.136;2023-11-21T09:37:30;1.25;;;1.17;;
46721;SDS011;32455;43.430;23.136;2023-11-21T09:40:16;0.60;;;0.60;;
46721;SDS011;32455;43.430;23.136;2023-11-21T09:43:14;0.75;;;0.70;;
46721;SDS011;32455;43.430;23.136;2023-11-21T09:46:02;0.70;;;0.70;;
46721;SDS011;32455;43.430;23.136;2023-11-21T09:48:55;0.65;;;0.60;;
46721;SDS011;32455;43.430;23.136;2023-11-21T09:51:46;0.82;;;0.80;;
46721;SDS011;32455;43.430;23.136;2023-11-21T09:54:32;3.67;;;1.00;;
46721;SDS011;32455;43.430;23.136;2023-11-21T09:57:22;1.30;;;0.70;;
46721;SDS011;32455;43.430;23.136;2023-11-21T10:00:09;5.25;;;1.10;;
46721;SDS011;32455;43.430;23.136;2023-11-21T10:02:57;1.63;;;0.75;;
46721;SDS011;32455;43.430;23.136;2023-11-21T10:05:44;1.02;;;0.88;;
46721;SDS011;32455;43.430;23.136;2023-11-21T10:08:33;0.90;;;0.75;;
46721;SDS011;32455;43.430;23.136;2023-11-21T10:11:18;0.65;;;0.52;;
46721;SDS011;32455;43.430;23.136;2023-11-21T10:14:04;0.80;;;0.80;;
46721;SDS011;32455;43.430;23.136;2023-11-21T10:16:50;0.60;;;0.60;;
46721;SDS011;32455;43.430;23.136;2023-11-21T10:19:36;1.05;;;0.73;;
46721;SDS011;32455;43.430;23.136;2023-11-21T10:22:22;0.77;;;0.77;;
46721;SDS011;32455;43.430;23.136;2023-11-21T10:25:12;0.50;;;0.50;;
46721;SDS011;32455;43.430;23.136;2023-11-21T10:28:05;0.60;;;0.60;;
46721;SDS011;32455;43.430;23.136;2023-11-21T10:30:51;0.60;;;0.60;;
46721;SDS011;32455;43.430;23.136;2023-11-21T10:33:37;1.20;;;0.70;;
46721;SDS011;32455;43.430;23.136;2023-11-21T10:36:27;0.85;;;0.80;;
46721;SDS011;32455;43.430;23.136;2023-11-21T10:39:22;0.77;;;0.77;;
46721;SDS011;32455;43.430;23.136;2023-11-21T10:42:08;1.17;;;0.80;;
46721;SDS011;32455;43.430;23.136;2023-11-21T10:44:55;1.02;;;1.00;;
46721;SDS011;32455;43.430;23.136;2023-11-21T10:47:41;0.90;;;0.85;;
46721;SDS011;32455;43.430;23.136;2023-11-21T10:50:27;4.85;;;2.25;;
46721;SDS011;32455;43.430;23.136;2023-11-21T10:53:12;2.58;;;1.20;;
46721;SDS011;32455;43.430;23.136;2023-11-21T10:56:05;4.25;;;2.25;;
46721;SDS011;32455;43.430;23.136;2023-11-21T10:58:52;3.13;;;1.92;;
46721;SDS011;32455;43.430;23.136;2023-11-21T11:01:38;4.07;;;1.80;;
46721;SDS011;32455;43.430;23.136;2023-11-21T11:04:24;3.75;;;1.70;;
46721;SDS011;32455;43.430;23.136;2023-11-21T11:07:12;3.92;;;2.03;;
46721;SDS011;32455;43.430;23.136;2023-11-21T11:10:01;2.67;;;1.70;;
46721;SDS011;32455;43.430;23.136;2023-11-21T11:12:48;2.85;;;1.80;;
46721;SDS011;32455;43.430;23.136;2023-11-21T11:15:33;2.78;;;1.70;;
46721;SDS011;32455;43.430;23.136;2023-11-21T11:18:19;1.27;;;1.17;;
46721;SDS011;32455;43.430;23.136;2023-11-21T11:21:07;3.05;;;2.05;;
46721;SDS011;32455;43.430;23.136;2023-11-21T11:24:11;1.85;;;1.50;;
46721;SDS011;32455;43.430;23.136;2023-11-21T11:30:38;2.38;;;1.75;;
46721;SDS011;32455;43.430;23.136;2023-11-21T11:33:48;1.60;;;1.40;;
46721;SDS011;32455;43.430;23.136;2023-11-21T11:36:49;1.83;;;1.40;;
46721;SDS011;32455;43.430;23.136;2023-11-21T11:39:48;4.18;;;1.30;;
46721;SDS011;32455;43.430;23.136;2023-11-21T11:42:34;2.60;;;1.45;;
46721;SDS011;32455;43.430;23.136;2023-11-21T11:45:20;6.22;;;1.45;;
46721;SDS011;32455;43.430;23.136;2023-11-21T11:48:05;1.92;;;1.70;;
46721;SDS011;32455;43.430;23.136;2023-11-21T11:51:10;2.45;;;1.70;;
46721;SDS011;32455;43.430;23.136;2023-11-21T11:53:58;2.38;;;1.70;;
46721;SDS011;32455;43.430;23.136;2023-11-21T11:56:43;2.97;;;1.73;;
46721;SDS011;32455;43.430;23.136;2023-11-21T11:59:30;3.28;;;1.70;;
46721;SDS011;32455;43.430;23.136;2023-11-21T12:02:25;1.60;;;1.20;;
46721;SDS011;32455;43.430;23.136;2023-11-21T12:05:11;1.98;;;1.65;;
46721;SDS011;32455;43.430;23.136;2023-11-21T12:07:59;2.03;;;1.10;;
46721;SDS011;32455;43.430;23.136;2023-11-21T12:10:47;1.67;;;1.15;;
46721;SDS011;32455;43.430;23.136;2023-11-21T12:13:33;2.58;;;1.30;;
46721;SDS011;32455;43.430;23.136;2023-11-21T12:16:19;2.22;;;1.17;;
46721;SDS011;32455;43.430;23.136;2023-11-21T12:19:05;1.50;;;1.20;;
46721;SDS011;32455;43.430;23.136;2023-11-21T12:21:50;2.63;;;1.75;;
46721;SDS011;32455;43.430;23.136;2023-11-21T12:24:36;4.18;;;2.00;;
46721;SDS011;32455;43.430;23.136;2023-11-21T12:27:22;5.60;;;3.10;;
46721;SDS011;32455;43.430;23.136;2023-11-21T12:30:07;3.72;;;2.05;;
46721;SDS011;32455;43.430;23.136;2023-11-21T12:32:59;2.58;;;1.67;;
46721;SDS011;32455;43.430;23.136;2023-11-21T12:35:45;2.00;;;1.50;;
46721;SDS011;32455;43.430;23.136;2023-11-21T12:38:36;1.75;;;1.50;;
46721;SDS011;32455;43.430;23.136;2023-11-21T12:41:21;2.88;;;1.77;;
46721;SDS011;32455;43.430;23.136;2023-11-21T12:44:09;4.22;;;2.03;;
46721;SDS011;32455;43.430;23.136;2023-11-21T12:46:56;2.40;;;1.70;;
46721;SDS011;32455;43.430;23.136;2023-11-21T12:49:42;2.00;;;1.30;;
46721;SDS011;32455;43.430;23.136;2023-11-21T12:52:29;2.83;;;1.65;;
46721;SDS011;32455;43.430;23.136;2023-11-21T12:55:17;4.03;;;1.50;;
46721;SDS011;32455;43.430;23.136;2023-11-21T12:58:06;3.15;;;2.65;;
46721;SDS011;32455;43.430;23.136;2023-11-21T13:00:57;2.38;;;1.77;;
46721;SDS011;32455;43.430;23.136;2023-11-21T13:03:47;5.50;;;3.05;;
46721;SDS011;32455;43.430;23.136;2023-11-21T13:06:35;3.05;;;1.80;;
46721;SDS011;32455;43.430;23.136;2023-11-21T13:09:26;1.73;;;1.38;;
46721;SDS011;32455;43.430;23.136;2023-11-21T13:12:12;2.28;;;1.30;;
46721;SDS011;32455;43.430;23.136;2023-11-21T13:14:58;3.55;;;1.50;;
46721;SDS011;32455;43.430;23.136;2023-11-21T13:17:51;0.80;;;0.80;;
46721;SDS011;32455;43.430;23.136;2023-11-21T13:20:39;0.95;;;0.77;;
46721;SDS011;32455;43.430;23.136;2023-11-21T13:23:25;1.27;;;0.90;;
46721;SDS011;32455;43.430;23.136;2023-11-21T13:26:12;1.20;;;1.10;;
46721;SDS011;32455;43.430;23.136;2023-11-21T13:28:58;0.85;;;0.85;;
46721;SDS011;32455;43.430;23.136;2023-11-21T13:31:44;1.30;;;0.88;;
46721;SDS011;32455;43.430;23.136;2023-11-21T13:34:30;1.52;;;0.60;;
46721;SDS011;32455;43.430;23.136;2023-11-21T13:37:15;3.38;;;0.82;;
46721;SDS011;32455;43.430;23.136;2023-11-21T13:40:00;1.35;;;0.77;;
46721;SDS011;32455;43.430;23.136;2023-11-21T13:42:54;3.33;;;2.55;;
46721;SDS011;32455;43.430;23.136;2023-11-21T13:45:44;2.63;;;2.08;;
46721;SDS011;32455;43.430;23.136;2023-11-21T13:48:30;0.60;;;0.60;;
46721;SDS011;32455;43.430;23.136;2023-11-21T13:51:36;0.75;;;0.70;;
46721;SDS011;32455;43.430;23.136;2023-11-21T13:54:32;1.65;;;0.85;;
46721;SDS011;32455;43.430;23.136;2023-11-21T13:57:18;3.70;;;1.17;;
46721;SDS011;32455;43.430;23.136;2023-11-21T14:00:05;0.93;;;0.93;;
46721;SDS011;32455;43.430;23.136;2023-11-21T14:02:55;0.90;;;0.90;;
46721;SDS011;32455;43.430;23.136;2023-11-21T14:05:45;1.33;;;0.85;;
46721;SDS011;32455;43.430;23.136;2023-11-21T14:08:32;0.95;;;0.80;;
46721;SDS011;32455;43.430;23.136;2023-11-21T14:11:18;0.95;;;0.70;;
46721;SDS011;32455;43.430;23.136;2023-11-21T14:14:06;0.95;;;0.90;;
46721;SDS011;32455;43.430;23.136;2023-11-21T14:16:55;1.63;;;1.02;;
46721;SDS011;32455;43.430;23.136;2023-11-21T14:19:51;0.77;;;0.77;;
46721;SDS011;32455;43.430;23.136;2023-11-21T14:22:36;2.40;;;0.90;;
46721;SDS011;32455;43.430;23.136;2023-11-21T14:25:22;1.38;;;0.98;;
46721;SDS011;32455;43.430;23.136;2023-11-21T14:28:06;1.58;;;0.90;;
46721;SDS011;32455;43.430;23.136;2023-11-21T14:30:51;0.90;;;0.80;;
46721;SDS011;32455;43.430;23.136;2023-11-21T14:33:37;1.00;;;0.90;;
46721;SDS011;32455;43.430;23.136;2023-11-21T14:36:22;2.35;;;1.27;;
46721;SDS011;32455;43.430;23.136;2023-11-21T14:39:07;1.30;;;1.17;;
46721;SDS011;32455;43.430;23.136;2023-11-21T14:42:01;1.00;;;0.85;;
46721;SDS011;32455;43.430;23.136;2023-11-21T14:44:47;1.00;;;1.00;;
46721;SDS011;32455;43.430;23.136;2023-11-21T14:47:33;3.15;;;1.30;;
46721;SDS011;32455;43.430;23.136;2023-11-21T14:50:19;1.10;;;1.00;;
46721;SDS011;32455;43.430;23.136;2023-11-21T14:53:23;2.65;;;1.30;;
46721;SDS011;32455;43.430;23.136;2023-11-21T14:56:28;4.07;;;1.50;;
46721;SDS011;32455;43.430;23.136;2023-11-21T14:59:18;1.77;;;1.60;;
46721;SDS011;32455;43.430;23.136;2023-11-21T15:02:03;1.90;;;1.70;;
46721;SDS011;32455;43.430;23.136;2023-11-21T15:05:28;4.78;;;1.98;;
46721;SDS011;32455;43.430;23.136;2023-11-21T15:08:14;4.72;;;2.33;;
46721;SDS011;32455;43.430;23.136;2023-11-21T15:11:08;2.92;;;2.20;;
46721;SDS011;32455;43.430;23.136;2023-11-21T15:13:59;3.58;;;2.85;;
46721;SDS011;32455;43.430;23.136;2023-11-21T15:16:45;6.65;;;3.25;;
46721;SDS011;32455;43.430;23.136;2023-11-21T15:19:35;5.65;;;3.88;;
46721;SDS011;32455;43.430;23.136;2023-11-21T15:22:19;6.05;;;3.25;;
46721;SDS011;32455;43.430;23.136;2023-11-21T15:25:05;5.20;;;3.40;;
46721;SDS011;32455;43.430;23.136;2023-11-21T15:27:54;6.15;;;3.20;;
46721;SDS011;32455;43.430;23.136;2023-11-21T15:30:39;4.45;;;3.10;;
46721;SDS011;32455;43.430;23.136;2023-11-21T15:33:25;6.70;;;3.30;;
46721;SDS011;32455;43.430;23.136;2023-11-21T15:36:12;4.10;;;3.15;;
46721;SDS011;32455;43.430;23.136;2023-11-21T15:38:59;5.40;;;2.95;;
46721;SDS011;32455;43.430;23.136;2023-11-21T15:41:44;3.88;;;2.80;;
46721;SDS011;32455;43.430;23.136;2023-11-21T15:44:30;6.00;;;3.63;;
46721;SDS011;32455;43.430;23.136;2023-11-21T15:47:17;5.93;;;3.13;;
46721;SDS011;32455;43.430;23.136;2023-11-21T15:50:03;4.97;;;2.83;;
46721;SDS011;32455;43.430;23.136;2023-11-21T15:52:53;6.88;;;3.03;;
46721;SDS011;32455;43.430;23.136;2023-11-21T15:55:39;5.18;;;3.55;;
46721;SDS011;32455;43.430;23.136;2023-11-21T15:58:27;6.25;;;3.80;;
46721;SDS011;32455;43.430;23.136;2023-11-21T16:01:13;3.72;;;3.33;;
46721;SDS011;32455;43.430;23.136;2023-11-21T16:04:00;5.68;;;3.17;;
46721;SDS011;32455;43.430;23.136;2023-11-21T16:06:46;5.18;;;2.65;;
46721;SDS011;32455;43.430;23.136;2023-11-21T16:09:32;4.13;;;2.70;;
46721;SDS011;32455;43.430;23.136;2023-11-21T16:12:18;6.82;;;3.95;;
46721;SDS011;32455;43.430;23.136;2023-11-21T16:15:05;3.95;;;3.20;;
46721;SDS011;32455;43.430;23.136;2023-11-21T16:17:55;6.63;;;3.40;;
46721;SDS011;32455;43.430;23.136;2023-11-21T16:20:40;5.80;;;3.78;;
46721;SDS011;32455;43.430;23.136;2023-11-21T16:23:26;8.52;;;3.83;;
46721;SDS011;32455;43.430;23.136;2023-11-21T16:26:11;4.85;;;3.25;;
46721;SDS011;32455;43.430;23.136;2023-11-21T16:28:57;4.88;;;3.85;;
46721;SDS011;32455;43.430;23.136;2023-11-21T16:31:42;5.95;;;4.03;;
46721;SDS011;32455;43.430;23.136;2023-11-21T16:34:28;7.15;;;3.60;;